Time;durP1;ratioP1;P1;durP2;ratioP2;P2;SDS_P1;SDS_P2;PMS_P1;PMS_P2;Temp;Humidity;BMP_temperature;BMP_pressure;BME280_temperature;BME280_humidity;BME280_pressure;Samples;Min_cycle;Max_cycle;Signal;HPM_P1;HPM_P2
2022/01/08 00:01:22;;;;;;;4.00;3.70;;;;;;;;;;5123046;28;20206;-70
2022/01/08 00:03:51;;;;;;;4.50;3.95;;;;;;;;;;5125124;28;20191;-69
2022/01/08 00:06:19;;;;;;;4.47;3.33;;;;;;;;;;5124611;28;20258;-67
2022/01/08 00:08:45;;;;;;;3.70;3.50;;;;;;;;;;5123064;28;20195;-67
2022/01/08 00:11:17;;;;;;;3.95;3.53;;;;;;;;;;5122185;28;20390;-67
2022/01/08 00:13:43;;;;;;;3.83;3.58;;;;;;;;;;5122491;28;20215;-67
2022/01/08 00:16:09;;;;;;;4.28;3.88;;;;;;;;;;5122768;28;20222;-67
2022/01/08 00:18:36;;;;;;;4.00;3.70;;;;;;;;;;5122601;28;20202;-67
2022/01/08 00:21:03;;;;;;;4.32;4.03;;;;;;;;;;5122855;28;20215;-67
2022/01/08 00:23:38;;;;;;;3.90;3.60;;;;;;;;;;5122991;28;20175;-67
2022/01/08 00:26:07;;;;;;;4.60;4.20;;;;;;;;;;5122606;28;20189;-67
2022/01/08 00:28:34;;;;;;;4.53;4.10;;;;;;;;;;5123127;28;20217;-67
2022/01/08 00:31:01;;;;;;;4.43;4.13;;;;;;;;;;5123689;28;20191;-69
2022/01/08 00:33:27;;;;;;;5.70;4.53;;;;;;;;;;5123888;28;20425;-69
2022/01/08 00:35:53;;;;;;;5.05;4.38;;;;;;;;;;5124131;28;20194;-69
2022/01/08 00:38:20;;;;;;;5.15;4.60;;;;;;;;;;5123235;28;20194;-67
2022/01/08 00:40:48;;;;;;;5.22;4.75;;;;;;;;;;5122721;28;20194;-67
2022/01/08 00:43:14;;;;;;;5.40;4.57;;;;;;;;;;5122527;28;20477;-66
2022/01/08 00:45:41;;;;;;;6.97;4.90;;;;;;;;;;5122132;28;20415;-66
2022/01/08 00:48:07;;;;;;;4.55;4.15;;;;;;;;;;5122831;28;20203;-68
2022/01/08 00:50:33;;;;;;;4.78;4.38;;;;;;;;;;5122620;28;20195;-69
2022/01/08 00:53:00;;;;;;;5.40;4.50;;;;;;;;;;5122371;28;20201;-69
2022/01/08 00:55:26;;;;;;;4.53;3.85;;;;;;;;;;5122275;28;20534;-68
2022/01/08 00:57:54;;;;;;;4.47;4.10;;;;;;;;;;5122448;28;20552;-68
2022/01/08 01:00:20;;;;;;;5.07;4.47;;;;;;;;;;5122280;28;20195;-69
2022/01/08 01:02:47;;;;;;;4.38;3.90;;;;;;;;;;5122621;28;20387;-69
2022/01/08 01:05:13;;;;;;;4.63;3.90;;;;;;;;;;5122130;28;20191;-69
2022/01/08 01:07:40;;;;;;;4.13;3.83;;;;;;;;;;5122863;28;20202;-69
2022/01/08 01:10:07;;;;;;;6.03;3.25;;;;;;;;;;5122772;28;20215;-69
2022/01/08 01:12:34;;;;;;;3.55;3.10;;;;;;;;;;5122287;28;20398;-69
2022/01/08 01:15:02;;;;;;;5.13;3.72;;;;;;;;;;5124681;28;20256;-70
2022/01/08 01:17:28;;;;;;;3.47;3.28;;;;;;;;;;5126522;28;20491;-69
2022/01/08 01:19:55;;;;;;;3.10;2.90;;;;;;;;;;5126389;28;20203;-69
2022/01/08 01:22:26;;;;;;;2.80;2.58;;;;;;;;;;5126171;28;20374;-69
2022/01/08 01:25:00;;;;;;;3.83;3.20;;;;;;;;;;5126032;28;20191;-69
2022/01/08 01:30:14;;;;;;;2.30;2.20;;;;;;;;;;5116970;28;20190;-69
2022/01/08 01:41:18;;;;;;;1.75;1.67;;;;;;;;;;5125882;28;20191;-67
2022/01/08 01:49:10;;;;;;;2.10;2.00;;;;;;;;;;5125663;28;20201;-67
2022/01/08 01:51:39;;;;;;;2.63;1.85;;;;;;;;;;5125570;28;20195;-67
2022/01/08 01:54:06;;;;;;;1.85;1.75;;;;;;;;;;5125704;28;20222;-66
2022/01/08 01:56:32;;;;;;;2.78;1.98;;;;;;;;;;5125194;28;20206;-67
2022/01/08 01:58:59;;;;;;;2.30;2.10;;;;;;;;;;5125729;28;20218;-67
2022/01/08 02:01:27;;;;;;;1.92;1.90;;;;;;;;;;5125290;28;20202;-66
2022/01/08 02:03:54;;;;;;;1.77;1.70;;;;;;;;;;5125452;28;20198;-67
2022/01/08 02:06:21;;;;;;;3.42;2.28;;;;;;;;;;5125535;28;20402;-66
2022/01/08 02:08:47;;;;;;;2.20;2.00;;;;;;;;;;5125290;28;20202;-67
2022/01/08 02:11:16;;;;;;;1.83;1.77;;;;;;;;;;5125215;28;20661;-67
2022/01/08 02:13:43;;;;;;;1.88;1.73;;;;;;;;;;5125895;28;20234;-70
2022/01/08 02:16:16;;;;;;;2.05;1.95;;;;;;;;;;5126419;28;20517;-69
2022/01/08 02:18:45;;;;;;;3.33;1.90;;;;;;;;;;5126180;28;20202;-69
2022/01/08 02:21:13;;;;;;;2.50;1.83;;;;;;;;;;5125384;28;20226;-68
2022/01/08 02:23:39;;;;;;;1.65;1.63;;;;;;;;;;5126258;28;20262;-69
2022/01/08 02:26:06;;;;;;;1.88;1.77;;;;;;;;;;5125498;28;20194;-70
2022/01/08 02:28:33;;;;;;;2.33;2.05;;;;;;;;;;5126258;28;20398;-69
2022/01/08 02:30:59;;;;;;;2.38;2.17;;;;;;;;;;5126347;28;20194;-69
2022/01/08 02:33:26;;;;;;;2.13;2.03;;;;;;;;;;5126239;28;20187;-69
2022/01/08 02:35:53;;;;;;;2.78;1.48;;;;;;;;;;5126242;28;20225;-69
2022/01/08 02:38:21;;;;;;;1.70;1.60;;;;;;;;;;5126839;28;20201;-69
2022/01/08 02:40:54;;;;;;;1.75;1.65;;;;;;;;;;5126127;28;20218;-69
2022/01/08 02:43:20;;;;;;;1.63;1.63;;;;;;;;;;5126354;28;20183;-67
2022/01/08 02:45:47;;;;;;;2.08;1.90;;;;;;;;;;5124563;28;20290;-67
2022/01/08 02:48:13;;;;;;;2.78;1.92;;;;;;;;;;5124632;28;20203;-67
2022/01/08 02:50:40;;;;;;;1.60;1.60;;;;;;;;;;5124434;28;20195;-67
2022/01/08 02:53:06;;;;;;;2.20;1.88;;;;;;;;;;5124195;28;20195;-67
2022/01/08 02:55:34;;;;;;;2.25;1.85;;;;;;;;;;5124374;28;20215;-67
2022/01/08 02:58:00;;;;;;;1.70;1.60;;;;;;;;;;5124393;28;20226;-67
2022/01/08 03:00:27;;;;;;;2.00;1.90;;;;;;;;;;5124214;28;20195;-67
2022/01/08 03:02:53;;;;;;;1.77;1.77;;;;;;;;;;5124113;28;20195;-67
2022/01/08 03:05:20;;;;;;;2.35;1.80;;;;;;;;;;5124174;28;20191;-67
2022/01/08 03:07:47;;;;;;;2.95;1.92;;;;;;;;;;5123916;28;20266;-66
2022/01/08 03:10:14;;;;;;;1.80;1.70;;;;;;;;;;5124293;28;20387;-66
2022/01/08 03:12:42;;;;;;;2.50;1.77;;;;;;;;;;5123871;28;20202;-66
2022/01/08 03:15:10;;;;;;;1.90;1.80;;;;;;;;;;5123747;28;20215;-67
2022/01/08 03:17:36;;;;;;;2.10;2.00;;;;;;;;;;5124112;28;20202;-67
2022/01/08 03:20:06;;;;;;;1.95;1.70;;;;;;;;;;5123835;28;20443;-67
2022/01/08 03:22:33;;;;;;;2.80;1.45;;;;;;;;;;5123914;28;20195;-66
2022/01/08 03:25:00;;;;;;;1.50;1.45;;;;;;;;;;5123494;28;20195;-67
2022/01/08 03:27:26;;;;;;;1.88;1.77;;;;;;;;;;5123707;28;20196;-66
2022/01/08 03:29:54;;;;;;;2.88;1.80;;;;;;;;;;5123921;28;20218;-66
2022/01/08 03:32:20;;;;;;;2.47;1.70;;;;;;;;;;5123681;28;20383;-67
2022/01/08 03:34:47;;;;;;;2.05;1.95;;;;;;;;;;5123247;28;20215;-67
2022/01/08 03:37:13;;;;;;;1.73;1.55;;;;;;;;;;5122923;28;20195;-67
2022/01/08 03:39:40;;;;;;;1.52;1.40;;;;;;;;;;5123565;28;20381;-67
2022/01/08 03:42:06;;;;;;;0.98;0.98;;;;;;;;;;5123692;28;20194;-66
2022/01/08 03:44:33;;;;;;;1.48;1.10;;;;;;;;;;5123133;28;20211;-67
2022/01/08 03:47:22;;;;;;;1.35;1.25;;;;;;;;;;5123303;28;20262;-67
2022/01/08 03:49:48;;;;;;;1.40;1.33;;;;;;;;;;5122730;28;20194;-66
2022/01/08 03:52:14;;;;;;;2.35;1.00;;;;;;;;;;5123502;28;20195;-67
2022/01/08 03:54:41;;;;;;;1.23;1.17;;;;;;;;;;5123108;28;20215;-67
2022/01/08 03:57:07;;;;;;;1.05;1.02;;;;;;;;;;5123065;28;20195;-67
2022/01/08 03:59:35;;;;;;;1.48;0.73;;;;;;;;;;5123644;28;20202;-67
2022/01/08 04:02:03;;;;;;;0.80;0.80;;;;;;;;;;5123367;28;20203;-67
2022/01/08 04:04:30;;;;;;;1.15;0.95;;;;;;;;;;5122829;28;20202;-67
2022/01/08 04:06:56;;;;;;;0.70;0.70;;;;;;;;;;5123191;28;20195;-67
2022/01/08 04:09:23;;;;;;;1.75;0.80;;;;;;;;;;5123357;28;20253;-67
2022/01/08 04:11:50;;;;;;;1.17;0.95;;;;;;;;;;5123254;28;20394;-67
2022/01/08 04:14:18;;;;;;;0.80;0.80;;;;;;;;;;5123087;28;20217;-67
2022/01/08 04:16:48;;;;;;;0.80;0.80;;;;;;;;;;5122671;28;20195;-67
2022/01/08 04:19:17;;;;;;;0.80;0.80;;;;;;;;;;5122820;28;20210;-67
2022/01/08 04:22:10;;;;;;;0.65;0.65;;;;;;;;;;5122973;28;20231;-67
2022/01/08 04:24:36;;;;;;;0.90;0.90;;;;;;;;;;5122594;28;20191;-67
2022/01/08 04:27:03;;;;;;;1.05;0.60;;;;;;;;;;5122602;28;20203;-67
2022/01/08 04:29:30;;;;;;;1.27;1.20;;;;;;;;;;5122799;28;20206;-67
2022/01/08 04:31:56;;;;;;;1.17;0.77;;;;;;;;;;5122799;28;20402;-67
2022/01/08 04:34:24;;;;;;;0.70;0.70;;;;;;;;;;5122535;28;20210;-67
2022/01/08 04:36:51;;;;;;;22.73;10.65;;;;;;;;;;5122718;28;20287;-67
2022/01/08 04:39:17;;;;;;;14.80;8.52;;;;;;;;;;5122421;28;20389;-67
2022/01/08 04:41:44;;;;;;;1.65;1.40;;;;;;;;;;5122817;28;20491;-66
2022/01/08 04:44:12;;;;;;;2.03;0.88;;;;;;;;;;5123359;28;20194;-69
2022/01/08 04:46:41;;;;;;;0.77;0.77;;;;;;;;;;5123779;28;20226;-69
2022/01/08 04:49:07;;;;;;;0.70;0.70;;;;;;;;;;5123978;28;20191;-68
2022/01/08 04:51:35;;;;;;;0.98;0.80;;;;;;;;;;5127744;28;20207;-69
2022/01/08 04:54:02;;;;;;;0.70;0.70;;;;;;;;;;5128127;28;20506;-67
2022/01/08 04:56:28;;;;;;;0.60;0.60;;;;;;;;;;5126581;28;20242;-66
2022/01/08 04:58:55;;;;;;;2.38;0.80;;;;;;;;;;5126650;28;20608;-66
2022/01/08 05:01:21;;;;;;;0.80;0.80;;;;;;;;;;5126684;28;20503;-66
2022/01/08 05:03:48;;;;;;;0.70;0.70;;;;;;;;;;5126521;28;20363;-67
2022/01/08 05:06:14;;;;;;;1.25;0.80;;;;;;;;;;5126317;28;20466;-67
2022/01/08 05:08:42;;;;;;;0.55;0.55;;;;;;;;;;5126280;28;20195;-67
2022/01/08 05:11:08;;;;;;;1.08;0.80;;;;;;;;;;5127337;28;20195;-69
2022/01/08 05:13:37;;;;;;;0.80;0.80;;;;;;;;;;5127183;28;20202;-69
2022/01/08 05:16:04;;;;;;;1.85;0.70;;;;;;;;;;5127115;28;20473;-69
2022/01/08 05:18:32;;;;;;;1.60;0.80;;;;;;;;;;5126610;28;20237;-69
2022/01/08 05:21:09;;;;;;;1.13;0.90;;;;;;;;;;5126150;28;20196;-70
2022/01/08 05:23:36;;;;;;;0.80;0.80;;;;;;;;;;5126501;28;20564;-70
2022/01/08 05:26:04;;;;;;;0.80;0.80;;;;;;;;;;5126129;28;20198;-70
2022/01/08 05:28:30;;;;;;;0.90;0.90;;;;;;;;;;5126036;28;20202;-68
2022/01/08 05:30:57;;;;;;;0.60;0.60;;;;;;;;;;5126189;28;20195;-70
2022/01/08 05:33:23;;;;;;;1.27;0.80;;;;;;;;;;5126096;28;20244;-69
2022/01/08 05:35:50;;;;;;;0.70;0.70;;;;;;;;;;5125579;28;20219;-70
2022/01/08 05:38:16;;;;;;;1.02;0.80;;;;;;;;;;5126015;28;20202;-67
2022/01/08 05:40:42;;;;;;;1.75;0.88;;;;;;;;;;5125843;28;20195;-67
2022/01/08 05:43:11;;;;;;;0.82;0.80;;;;;;;;;;5126149;28;20195;-67
2022/01/08 05:45:37;;;;;;;1.00;1.00;;;;;;;;;;5127401;28;20738;-69
2022/01/08 05:48:04;;;;;;;0.90;0.90;;;;;;;;;;5127973;28;20195;-69
2022/01/08 05:50:31;;;;;;;0.88;0.77;;;;;;;;;;5127838;28;20203;-69
2022/01/08 05:52:57;;;;;;;1.10;1.00;;;;;;;;;;5127347;28;20195;-69
2022/01/08 05:55:24;;;;;;;1.55;1.45;;;;;;;;;;5127567;28;20215;-69
2022/01/08 05:57:50;;;;;;;1.00;1.00;;;;;;;;;;5127688;28;20503;-70
2022/01/08 06:00:19;;;;;;;3.70;1.30;;;;;;;;;;5124381;28;20218;-70
2022/01/08 06:02:45;;;;;;;3.22;1.15;;;;;;;;;;5125607;28;20491;-69
2022/01/08 06:05:11;;;;;;;1.27;1.02;;;;;;;;;;5125393;28;20191;-69
2022/01/08 06:07:38;;;;;;;0.90;0.90;;;;;;;;;;5125733;28;20195;-67
2022/01/08 06:10:05;;;;;;;1.00;1.00;;;;;;;;;;5125682;28;20234;-69
2022/01/08 06:12:31;;;;;;;0.82;0.82;;;;;;;;;;5127358;28;20369;-68
2022/01/08 06:14:58;;;;;;;0.60;0.60;;;;;;;;;;5126838;28;20195;-69
2022/01/08 06:17:25;;;;;;;0.90;0.90;;;;;;;;;;5127642;28;20191;-69
2022/01/08 06:19:52;;;;;;;1.23;1.20;;;;;;;;;;5126636;28;20325;-67
2022/01/08 06:22:21;;;;;;;0.60;0.60;;;;;;;;;;5125236;28;20399;-67
2022/01/08 06:24:48;;;;;;;0.40;0.40;;;;;;;;;;5124998;28;20202;-67
2022/01/08 06:27:14;;;;;;;0.65;0.60;;;;;;;;;;5125031;28;20526;-67
2022/01/08 06:29:40;;;;;;;0.60;0.60;;;;;;;;;;5124832;28;20195;-67
2022/01/08 06:32:07;;;;;;;0.50;0.50;;;;;;;;;;5125177;28;20203;-67
2022/01/08 06:34:35;;;;;;;0.73;0.70;;;;;;;;;;5124929;28;20195;-67
2022/01/08 06:37:02;;;;;;;0.50;0.50;;;;;;;;;;5124872;28;20226;-67
2022/01/08 06:39:28;;;;;;;0.45;0.45;;;;;;;;;;5124653;28;20195;-67
2022/01/08 06:41:55;;;;;;;0.50;0.50;;;;;;;;;;5124805;28;20417;-67
2022/01/08 06:44:21;;;;;;;0.50;0.50;;;;;;;;;;5124416;28;20199;-67
2022/01/08 06:46:48;;;;;;;0.63;0.50;;;;;;;;;;5124377;28;20192;-69
2022/01/08 06:49:14;;;;;;;0.45;0.45;;;;;;;;;;5124720;28;20222;-69
2022/01/08 06:51:44;;;;;;;1.27;0.60;;;;;;;;;;5124810;28;20195;-69
2022/01/08 06:54:11;;;;;;;0.70;0.70;;;;;;;;;;5124323;28;20262;-70
2022/01/08 06:56:38;;;;;;;0.60;0.60;;;;;;;;;;5124024;28;20436;-70
2022/01/08 06:59:04;;;;;;;0.50;0.50;;;;;;;;;;5124062;28;20351;-70
2022/01/08 07:01:31;;;;;;;0.60;0.60;;;;;;;;;;5124298;28;20223;-69
2022/01/08 07:03:57;;;;;;;0.63;0.63;;;;;;;;;;5124301;28;20195;-68
2022/01/08 07:06:24;;;;;;;1.05;0.80;;;;;;;;;;5124269;28;20198;-68
2022/01/08 07:08:52;;;;;;;0.70;0.70;;;;;;;;;;5124184;28;20191;-68
2022/01/08 07:11:18;;;;;;;1.30;0.70;;;;;;;;;;5124100;28;20394;-68
2022/01/08 07:13:44;;;;;;;1.15;0.80;;;;;;;;;;5123933;28;20218;-69
2022/01/08 07:16:11;;;;;;;2.72;0.75;;;;;;;;;;5123699;28;20387;-69
2022/01/08 07:18:37;;;;;;;0.70;0.70;;;;;;;;;;5123741;28;20195;-69
2022/01/08 07:21:04;;;;;;;3.70;0.95;;;;;;;;;;5123958;28;20195;-69
2022/01/08 07:23:30;;;;;;;0.80;0.80;;;;;;;;;;5123859;28;20195;-69
2022/01/08 07:25:58;;;;;;;0.95;0.90;;;;;;;;;;5123365;28;20179;-69
2022/01/08 07:28:24;;;;;;;1.23;0.93;;;;;;;;;;5123630;28;20190;-69
2022/01/08 07:30:51;;;;;;;0.63;0.63;;;;;;;;;;5123782;28;20270;-69
2022/01/08 07:33:17;;;;;;;0.88;0.88;;;;;;;;;;5123690;28;20195;-69
2022/01/08 07:35:44;;;;;;;0.90;0.90;;;;;;;;;;5123428;28;20226;-70
2022/01/08 07:38:10;;;;;;;0.90;0.90;;;;;;;;;;5123670;28;20202;-69
2022/01/08 07:40:37;;;;;;;1.00;1.00;;;;;;;;;;5123286;28;20202;-69
2022/01/08 07:43:05;;;;;;;1.83;1.63;;;;;;;;;;5123306;28;20221;-68
2022/01/08 07:45:31;;;;;;;1.55;1.17;;;;;;;;;;5122966;28;20215;-68
2022/01/08 07:47:59;;;;;;;1.30;1.30;;;;;;;;;;5123358;28;20195;-68
2022/01/08 07:50:26;;;;;;;1.38;1.25;;;;;;;;;;5123394;28;20422;-68
2022/01/08 07:52:52;;;;;;;1.83;1.55;;;;;;;;;;5123394;28;20555;-68
2022/01/08 07:55:19;;;;;;;1.55;1.45;;;;;;;;;;5122986;28;20203;-68
2022/01/08 07:57:45;;;;;;;1.85;1.75;;;;;;;;;;5123302;28;20195;-54
2022/01/08 08:00:13;;;;;;;1.48;1.38;;;;;;;;;;5123166;28;20199;-56
2022/01/08 08:02:40;;;;;;;1.40;1.40;;;;;;;;;;5123388;28;20202;-60
2022/01/08 08:05:07;;;;;;;1.23;1.20;;;;;;;;;;5122825;28;20195;-60
2022/01/08 08:07:37;;;;;;;1.67;1.58;;;;;;;;;;5121532;28;20191;-60
2022/01/08 08:10:04;;;;;;;1.83;1.73;;;;;;;;;;5121863;28;20234;-61
2022/01/08 08:12:30;;;;;;;2.95;1.52;;;;;;;;;;5121688;28;20199;-60
2022/01/08 08:14:57;;;;;;;1.60;1.55;;;;;;;;;;5120998;28;20191;-61
2022/01/08 08:17:25;;;;;;;3.30;1.80;;;;;;;;;;5121311;28;20222;-60
2022/01/08 08:19:51;;;;;;;1.50;1.40;;;;;;;;;;5121559;28;20202;-60
2022/01/08 08:22:17;;;;;;;3.30;1.63;;;;;;;;;;5123577;28;20495;-60
2022/01/08 08:24:44;;;;;;;2.60;2.22;;;;;;;;;;5122286;28;20313;-60
2022/01/08 08:27:10;;;;;;;3.28;2.90;;;;;;;;;;5123079;28;20199;-61
2022/01/08 08:29:38;;;;;;;3.55;3.25;;;;;;;;;;5122614;28;20195;-57
2022/01/08 08:32:05;;;;;;;3.00;2.80;;;;;;;;;;5122840;28;20547;-56
2022/01/08 08:34:33;;;;;;;2.28;2.05;;;;;;;;;;5122307;28;20503;-55
2022/01/08 08:36:59;;;;;;;3.33;3.05;;;;;;;;;;5122341;28;20276;-55
2022/01/08 08:39:26;;;;;;;2.50;2.30;;;;;;;;;;5122591;28;20202;-57
2022/01/08 08:41:52;;;;;;;2.05;1.70;;;;;;;;;;5122843;28;20195;-57
2022/01/08 08:44:19;;;;;;;2.90;2.05;;;;;;;;;;5122564;28;20518;-56
2022/01/08 08:46:45;;;;;;;1.83;1.70;;;;;;;;;;5122664;28;20191;-60
2022/01/08 08:49:11;;;;;;;2.85;1.95;;;;;;;;;;5123382;28;20202;-60
2022/01/08 08:51:39;;;;;;;3.45;1.55;;;;;;;;;;5122883;28;20193;-59
2022/01/08 08:54:06;;;;;;;3.63;1.65;;;;;;;;;;5122751;28;20195;-60
2022/01/08 08:56:32;;;;;;;1.92;1.60;;;;;;;;;;5122270;28;20233;-59
2022/01/08 08:58:58;;;;;;;2.85;1.75;;;;;;;;;;5122892;28;20487;-60
2022/01/08 09:01:26;;;;;;;3.13;1.88;;;;;;;;;;5123120;28;20195;-60
2022/01/08 09:03:53;;;;;;;3.22;1.75;;;;;;;;;;5122326;28;20202;-59
2022/01/08 09:06:19;;;;;;;0.90;0.90;;;;;;;;;;5122640;28;20198;-60
2022/01/08 09:08:47;;;;;;;2.17;1.30;;;;;;;;;;5122524;28;20262;-60
2022/01/08 09:11:13;;;;;;;1.48;1.13;;;;;;;;;;5122525;28;20202;-60
2022/01/08 09:13:40;;;;;;;2.55;1.27;;;;;;;;;;5122312;28;20195;-61
2022/01/08 09:16:06;;;;;;;1.40;1.35;;;;;;;;;;5122050;28;20264;-61
2022/01/08 09:18:33;;;;;;;3.67;1.25;;;;;;;;;;5122052;28;20196;-60
2022/01/08 09:20:59;;;;;;;2.55;1.20;;;;;;;;;;5122446;28;20503;-60
2022/01/08 09:23:26;;;;;;;2.25;1.13;;;;;;;;;;5122398;28;20199;-60
2022/01/08 09:25:53;;;;;;;4.10;1.30;;;;;;;;;;5122001;28;20195;-61
2022/01/08 09:28:20;;;;;;;3.25;1.42;;;;;;;;;;5122435;28;20202;-61
2022/01/08 09:30:46;;;;;;;4.55;1.25;;;;;;;;;;5122024;28;20195;-56
2022/01/08 09:33:13;;;;;;;2.50;1.30;;;;;;;;;;5121950;28;20391;-57
2022/01/08 09:35:40;;;;;;;3.10;1.48;;;;;;;;;;5124130;28;20195;-57
2022/01/08 09:38:06;;;;;;;1.58;1.40;;;;;;;;;;5126162;28;20226;-57
2022/01/08 09:40:33;;;;;;;3.08;1.40;;;;;;;;;;5125916;28;20195;-55
2022/01/08 09:43:01;;;;;;;3.20;1.58;;;;;;;;;;5125544;28;20226;-56
2022/01/08 09:45:27;;;;;;;2.05;1.30;;;;;;;;;;5125439;28;20234;-56
2022/01/08 09:47:54;;;;;;;1.17;1.02;;;;;;;;;;5125896;28;20191;-57
2022/01/08 09:50:20;;;;;;;4.32;1.20;;;;;;;;;;5126003;28;20195;-55
2022/01/08 09:52:47;;;;;;;1.65;1.15;;;;;;;;;;5125734;28;20555;-56
2022/01/08 09:55:13;;;;;;;1.30;1.20;;;;;;;;;;5125298;28;20600;-56
2022/01/08 09:57:39;;;;;;;2.58;1.60;;;;;;;;;;5125043;28;20219;-55
2022/01/08 10:00:12;;;;;;;1.83;1.27;;;;;;;;;;5125123;28;20386;-56
2022/01/08 10:02:38;;;;;;;1.10;1.00;;;;;;;;;;5124796;28;20195;-61
2022/01/08 10:05:08;;;;;;;1.85;1.40;;;;;;;;;;5124857;28;20404;-61
2022/01/08 10:07:34;;;;;;;1.42;1.42;;;;;;;;;;5125008;28;20217;-60
2022/01/08 10:10:10;;;;;;;1.88;1.27;;;;;;;;;;5125184;28;20384;-58
2022/01/08 10:12:56;;;;;;;1.55;1.40;;;;;;;;;;5124870;28;20179;-61
2022/01/08 10:18:20;;;;;;;2.45;1.20;;;;;;;;;;5124584;28;20213;-61
2022/01/08 10:20:49;;;;;;;4.20;1.45;;;;;;;;;;5124333;28;20210;-60
2022/01/08 10:23:17;;;;;;;2.72;1.50;;;;;;;;;;5124673;28;20222;-60
2022/01/08 10:25:54;;;;;;;1.25;1.25;;;;;;;;;;5124179;28;20678;-60
2022/01/08 10:28:32;;;;;;;2.53;1.58;;;;;;;;;;5124365;28;20198;-60
2022/01/08 10:31:06;;;;;;;1.67;1.55;;;;;;;;;;5124385;28;20194;-61
2022/01/08 10:33:32;;;;;;;3.03;1.40;;;;;;;;;;5124752;28;20182;-61
2022/01/08 10:35:59;;;;;;;5.45;1.90;;;;;;;;;;5123868;28;20374;-60
2022/01/08 10:38:27;;;;;;;2.15;1.95;;;;;;;;;;5124097;28;20219;-60
2022/01/08 10:40:54;;;;;;;4.30;2.42;;;;;;;;;;5124329;28;20218;-54
2022/01/08 10:43:25;;;;;;;3.65;1.52;;;;;;;;;;5124212;28;20652;-57
2022/01/08 10:45:52;;;;;;;4.82;1.52;;;;;;;;;;5123761;28;20211;-55
2022/01/08 10:48:27;;;;;;;2.38;2.22;;;;;;;;;;5123713;28;20519;-55
2022/01/08 10:50:53;;;;;;;2.60;1.70;;;;;;;;;;5124179;28;20205;-55
2022/01/08 10:53:20;;;;;;;6.38;3.70;;;;;;;;;;5124343;28;20202;-57
2022/01/08 10:55:47;;;;;;;4.20;2.75;;;;;;;;;;5123758;28;20501;-57
2022/01/08 10:58:13;;;;;;;4.07;1.42;;;;;;;;;;5123994;28;20238;-56
2022/01/08 11:00:40;;;;;;;2.50;1.90;;;;;;;;;;5123609;28;20195;-55
2022/01/08 11:03:09;;;;;;;1.70;1.50;;;;;;;;;;5124092;28;20218;-57
2022/01/08 11:06:00;;;;;;;4.82;2.65;;;;;;;;;;5123364;28;20362;-60
2022/01/08 11:08:26;;;;;;;5.95;2.17;;;;;;;;;;5123981;28;20199;-60
2022/01/08 11:10:53;;;;;;;4.82;2.80;;;;;;;;;;5123471;28;20194;-55
2022/01/08 11:13:19;;;;;;;3.17;2.40;;;;;;;;;;5123008;28;20260;-54
2022/01/08 11:15:51;;;;;;;1.67;1.58;;;;;;;;;;5123124;28;20266;-53
2022/01/08 11:18:18;;;;;;;3.20;1.90;;;;;;;;;;5123459;28;20287;-55
2022/01/08 11:20:47;;;;;;;6.57;1.20;;;;;;;;;;5123155;28;20202;-56
2022/01/08 11:23:15;;;;;;;2.22;1.33;;;;;;;;;;5123300;28;20195;-55
2022/01/08 11:25:42;;;;;;;2.28;1.55;;;;;;;;;;5123004;28;20262;-55
2022/01/08 11:28:10;;;;;;;1.67;1.27;;;;;;;;;;5123426;28;20191;-61
2022/01/08 11:30:38;;;;;;;2.65;1.38;;;;;;;;;;5123569;28;20371;-60
2022/01/08 11:33:09;;;;;;;4.88;1.40;;;;;;;;;;5123373;28;20201;-60
2022/01/08 11:35:36;;;;;;;2.97;1.65;;;;;;;;;;5122904;28;20183;-54
2022/01/08 11:38:06;;;;;;;4.03;1.10;;;;;;;;;;5123150;28;20243;-55
2022/01/08 11:40:33;;;;;;;2.80;1.42;;;;;;;;;;5123667;28;20229;-54
2022/01/08 11:43:01;;;;;;;4.20;1.60;;;;;;;;;;5123719;28;20202;-56
2022/01/08 11:45:29;;;;;;;1.73;1.30;;;;;;;;;;5123459;28;20287;-56
2022/01/08 11:47:57;;;;;;;5.65;1.92;;;;;;;;;;5123604;28;20198;-55
2022/01/08 11:50:24;;;;;;;2.83;1.17;;;;;;;;;;5123552;28;20203;-56
2022/01/08 11:53:05;;;;;;;4.15;1.85;;;;;;;;;;5123035;28;20400;-54
2022/01/08 11:55:36;;;;;;;5.13;3.00;;;;;;;;;;5123054;28;20202;-56
2022/01/08 11:58:16;;;;;;;3.67;1.67;;;;;;;;;;5122461;28;20254;-56
2022/01/08 12:00:50;;;;;;;2.00;1.90;;;;;;;;;;5123459;28;20194;-55
2022/01/08 12:03:29;;;;;;;2.78;2.08;;;;;;;;;;5123320;28;20490;-56
2022/01/08 12:05:56;;;;;;;3.40;1.30;;;;;;;;;;5122768;28;20201;-60
2022/01/08 12:08:44;;;;;;;1.38;1.20;;;;;;;;;;5123371;28;20380;-60
2022/01/08 12:11:12;;;;;;;1.48;1.45;;;;;;;;;;5123382;28;20502;-60
2022/01/08 12:13:45;;;;;;;4.68;2.08;;;;;;;;;;5123138;28;20264;-60
2022/01/08 12:16:30;;;;;;;2.40;1.55;;;;;;;;;;5123317;28;20198;-61
2022/01/08 12:18:56;;;;;;;2.25;1.25;;;;;;;;;;5122994;28;20214;-57
2022/01/08 12:21:32;;;;;;;3.13;1.23;;;;;;;;;;5122880;28;20195;-55
2022/01/08 12:23:59;;;;;;;1.40;1.20;;;;;;;;;;5122821;28;20194;-55
2022/01/08 12:26:39;;;;;;;3.80;2.00;;;;;;;;;;5122663;28;20195;-55
2022/01/08 12:29:07;;;;;;;4.15;1.98;;;;;;;;;;5122642;28;20206;-55
2022/01/08 12:31:40;;;;;;;1.90;1.20;;;;;;;;;;5122591;28;20191;-56
2022/01/08 12:34:36;;;;;;;1.40;1.30;;;;;;;;;;5123120;28;20510;-57
2022/01/08 12:37:04;;;;;;;2.33;1.80;;;;;;;;;;5076389;28;20278;-56
2022/01/08 12:39:49;;;;;;;3.25;1.00;;;;;;;;;;5122740;28;20503;-55
2022/01/08 12:42:34;;;;;;;1.33;0.90;;;;;;;;;;5122584;28;20195;-56
2022/01/08 12:45:02;;;;;;;1.63;1.30;;;;;;;;;;5122184;28;20215;-61
2022/01/08 12:47:38;;;;;;;1.27;1.00;;;;;;;;;;5122614;28;20191;-58
2022/01/08 12:50:22;;;;;;;1.75;1.40;;;;;;;;;;5122563;28;20369;-60
2022/01/08 12:53:07;;;;;;;1.63;1.20;;;;;;;;;;5122498;28;20267;-58
2022/01/08 12:55:34;;;;;;;1.38;1.25;;;;;;;;;;5122288;28;20195;-60
2022/01/08 12:58:02;;;;;;;2.08;1.83;;;;;;;;;;5122628;28;20218;-56
2022/01/08 13:00:29;;;;;;;6.28;1.95;;;;;;;;;;5122423;28;20194;-56
2022/01/08 13:02:55;;;;;;;2.83;1.50;;;;;;;;;;5122959;28;20202;-56
2022/01/08 13:05:22;;;;;;;2.58;2.03;;;;;;;;;;5122192;28;20202;-54
2022/01/08 13:07:48;;;;;;;2.35;1.58;;;;;;;;;;5122486;28;20191;-56
2022/01/08 13:10:16;;;;;;;3.97;1.38;;;;;;;;;;5123890;28;20195;-61
2022/01/08 13:12:42;;;;;;;1.23;1.10;;;;;;;;;;5127186;28;20201;-61
2022/01/08 13:15:11;;;;;;;3.28;1.50;;;;;;;;;;5126974;28;20500;-60
2022/01/08 13:17:37;;;;;;;1.42;1.33;;;;;;;;;;5127237;28;20527;-57
2022/01/08 13:20:04;;;;;;;3.33;3.03;;;;;;;;;;5126034;28;20218;-55
2022/01/08 13:22:31;;;;;;;1.83;1.55;;;;;;;;;;5126515;28;20202;-56
2022/01/08 13:24:57;;;;;;;2.25;1.48;;;;;;;;;;5125918;28;20195;-57
2022/01/08 13:27:24;;;;;;;4.25;2.35;;;;;;;;;;5126321;28;20498;-56
2022/01/08 13:29:51;;;;;;;1.45;1.40;;;;;;;;;;5126416;28;20375;-58
2022/01/08 13:32:19;;;;;;;4.35;2.70;;;;;;;;;;5126062;28;20528;-55
2022/01/08 13:34:46;;;;;;;3.78;3.40;;;;;;;;;;5125554;28;20195;-55
2022/01/08 13:37:13;;;;;;;2.15;1.98;;;;;;;;;;5125715;28;20195;-56
2022/01/08 13:39:44;;;;;;;1.83;1.58;;;;;;;;;;5125882;28;20203;-56
2022/01/08 13:42:12;;;;;;;3.72;1.85;;;;;;;;;;5126072;28;20210;-58
2022/01/08 13:44:39;;;;;;;2.83;2.63;;;;;;;;;;5125543;28;20211;-55
2022/01/08 13:47:06;;;;;;;2.75;1.70;;;;;;;;;;5125236;28;20195;-59
2022/01/08 13:49:33;;;;;;;4.70;3.38;;;;;;;;;;5125736;28;20525;-59
2022/01/08 13:52:02;;;;;;;12.38;6.97;;;;;;;;;;5123425;28;20210;-57
2022/01/08 13:54:35;;;;;;;2.00;1.90;;;;;;;;;;5112203;27;20207;-56
2022/01/08 13:57:12;;;;;;;8.10;6.45;;;;;;;;;;5116200;28;20490;-57
2022/01/08 13:59:38;;;;;;;1.98;1.65;;;;;;;;;;5133097;27;20311;-52
2022/01/08 14:02:05;;;;;;;4.15;1.50;;;;;;;;;;5119042;27;20592;-57
2022/01/08 14:04:31;;;;;;;2.00;1.90;;;;;;;;;;5122678;28;20207;-53
2022/01/08 14:06:59;;;;;;;2.25;2.05;;;;;;;;;;5117183;28;20199;-54
2022/01/08 14:09:26;;;;;;;1.63;1.48;;;;;;;;;;5115971;28;20410;-53
2022/01/08 14:12:07;;;;;;;3.25;2.00;;;;;;;;;;5130060;27;20199;-53
2022/01/08 14:14:39;;;;;;;2.25;1.92;;;;;;;;;;5143363;27;20203;-52
2022/01/08 14:17:14;;;;;;;2.38;1.63;;;;;;;;;;5143339;27;20202;-54
2022/01/08 14:19:40;;;;;;;2.20;2.00;;;;;;;;;;5143339;27;20222;-53
2022/01/08 14:22:09;;;;;;;1.45;1.42;;;;;;;;;;5141579;27;20202;-53
2022/01/08 14:24:36;;;;;;;2.42;2.00;;;;;;;;;;5141862;27;20526;-52
2022/01/08 14:27:04;;;;;;;2.28;2.17;;;;;;;;;;5122885;27;20199;-53
2022/01/08 14:29:31;;;;;;;4.05;2.00;;;;;;;;;;5122616;28;20199;-53
2022/01/08 14:31:59;;;;;;;2.00;1.75;;;;;;;;;;5122253;28;20203;-52
2022/01/08 14:34:25;;;;;;;1.50;1.40;;;;;;;;;;5122404;28;20207;-53
2022/01/08 14:36:53;;;;;;;1.70;1.60;;;;;;;;;;5122195;28;20203;-53
2022/01/08 14:39:40;;;;;;;1.80;1.60;;;;;;;;;;5122334;28;20219;-57
2022/01/08 14:42:08;;;;;;;1.30;1.27;;;;;;;;;;5121997;28;20371;-55
2022/01/08 14:44:35;;;;;;;1.40;1.30;;;;;;;;;;5123791;28;20222;-60
2022/01/08 14:47:02;;;;;;;1.33;1.23;;;;;;;;;;5124476;28;20203;-60
2022/01/08 14:49:28;;;;;;;4.32;1.85;;;;;;;;;;5143655;27;20199;-60
2022/01/08 14:51:55;;;;;;;5.82;5.43;;;;;;;;;;5128544;27;20190;-59
2022/01/08 14:54:25;;;;;;;2.10;1.90;;;;;;;;;;5144204;27;20209;-60
2022/01/08 14:56:53;;;;;;;2.05;1.95;;;;;;;;;;5145706;27;20190;-60
2022/01/08 14:59:19;;;;;;;5.18;1.90;;;;;;;;;;5144866;27;20229;-58
2022/01/08 15:01:45;;;;;;;3.65;1.83;;;;;;;;;;5142172;27;20206;-55
2022/01/08 15:04:14;;;;;;;5.25;1.98;;;;;;;;;;5128367;27;20491;-58
2022/01/08 15:06:40;;;;;;;2.83;2.38;;;;;;;;;;5111800;28;20257;-57
2022/01/08 15:09:07;;;;;;;4.47;1.85;;;;;;;;;;5120293;28;20210;-57